createdAt,value
2018-04-14T00:01:02.252Z,53.30
2018-04-14T00:03:31.619Z,53.30
2018-04-14T00:06:01.026Z,54.73
2018-04-14T00:08:30.396Z,52.17
2018-04-14T00:10:59.798Z,50.37
2018-04-14T00:13:29.168Z,51.83
2018-04-14T00:15:58.568Z,50.97
2018-04-14T00:18:27.941Z,52.80
2018-04-14T00:20:57.347Z,52.30
2018-04-14T00:23:26.730Z,54.43
2018-04-14T00:25:56.122Z,54.20
2018-04-14T00:28:25.501Z,54.27
2018-04-14T00:30:54.910Z,55.40
2018-04-14T00:33:24.282Z,55.50
2018-04-14T00:35:53.685Z,57.47
2018-04-14T00:38:23.059Z,56.13
2018-04-14T00:40:52.474Z,58.50
2018-04-14T00:43:21.841Z,57.50
2018-04-14T00:45:51.238Z,57.80
2018-04-14T00:48:20.621Z,57.63
2018-04-14T00:50:50.026Z,56.97
2018-04-14T00:53:25.227Z,55.77
2018-04-14T00:55:54.633Z,58.10
2018-04-14T00:58:24.009Z,57.43
2018-04-14T01:00:53.410Z,56.37
2018-04-14T01:03:22.795Z,54.30
2018-04-14T01:05:52.198Z,56.93
2018-04-14T01:08:21.573Z,57.47
2018-04-14T01:10:50.982Z,54.50
2018-04-14T01:13:20.366Z,53.63
2018-04-14T01:15:49.767Z,53.13
2018-04-14T01:18:19.145Z,55.80
2018-04-14T01:20:48.541Z,53.00
2018-04-14T01:23:17.916Z,54.67
2018-04-14T01:25:45.961Z,55.40
2018-04-14T01:28:14.094Z,53.73
2018-04-14T01:30:42.233Z,54.13
2018-04-14T01:33:10.357Z,53.43
2018-04-14T01:35:38.492Z,53.93
2018-04-14T01:38:06.612Z,53.60
2018-04-14T01:40:36.261Z,52.87
2018-04-14T01:43:04.488Z,54.93
2018-04-14T01:45:32.626Z,54.37
2018-04-14T01:48:00.750Z,55.50
2018-04-14T01:50:29.659Z,52.23
2018-04-14T01:52:57.772Z,53.97
2018-04-14T01:55:25.913Z,57.00
2018-04-14T01:57:54.030Z,54.67
2018-04-14T02:00:22.179Z,54.20
2018-04-14T02:02:50.301Z,51.97
2018-04-14T02:05:19.172Z,51.30
2018-04-14T02:07:47.321Z,54.43
2018-04-14T02:10:15.439Z,53.23
2018-04-14T02:12:44.335Z,54.47
2018-04-14T02:15:13.300Z,54.07
2018-04-14T02:17:42.739Z,51.57
2018-04-14T02:20:11.634Z,51.87
2018-04-14T02:22:39.778Z,52.40
2018-04-14T02:25:08.826Z,48.73
2018-04-14T02:27:37.075Z,48.17
2018-04-14T02:30:05.958Z,49.03
2018-04-14T02:32:34.857Z,48.67
2018-04-14T02:35:03.742Z,49.40
2018-04-14T02:37:32.656Z,52.53
2018-04-14T02:40:00.773Z,52.97
2018-04-14T02:42:28.919Z,50.57
2018-04-14T02:44:57.047Z,52.67
2018-04-14T02:47:25.958Z,53.93
2018-04-14T02:49:54.122Z,54.73
2018-04-14T02:52:23.035Z,55.30
2018-04-14T02:54:51.157Z,58.03
2018-04-14T02:57:19.311Z,51.97
2018-04-14T02:59:47.441Z,52.57
2018-04-14T03:02:15.722Z,55.20
2018-04-14T03:04:43.846Z,54.80
2018-04-14T03:07:11.982Z,54.07
2018-04-14T03:09:40.101Z,53.70
2018-04-14T03:12:08.258Z,54.40
2018-04-14T03:14:36.409Z,56.10
2018-04-14T03:17:04.560Z,56.07
2018-04-14T03:19:32.676Z,54.77
2018-04-14T03:22:00.842Z,53.60
2018-04-14T03:24:28.964Z,57.80
2018-04-14T03:26:57.879Z,56.90
2018-04-14T03:29:26.003Z,59.00
2018-04-14T03:31:54.149Z,55.87
2018-04-14T03:34:22.273Z,55.40
2018-04-14T03:36:51.177Z,56.30
2018-04-14T03:39:19.384Z,56.53
2018-04-14T03:41:47.528Z,55.97
2018-04-14T03:44:15.732Z,57.00
2018-04-14T03:46:43.878Z,60.07
2018-04-14T03:49:12.306Z,57.17
2018-04-14T03:51:40.464Z,59.53
2018-04-14T03:54:08.625Z,60.33
2018-04-14T03:56:36.758Z,60.37
2018-04-14T03:59:05.636Z,56.07
2018-04-14T04:01:33.781Z,59.27
2018-04-14T04:04:01.931Z,58.80
2018-04-14T04:06:30.105Z,61.80
2018-04-14T04:08:58.231Z,58.03
2018-04-14T04:11:26.374Z,58.80
2018-04-14T04:13:54.519Z,59.87
2018-04-14T04:16:22.672Z,60.93
2018-04-14T04:19:03.209Z,60.60
2018-04-14T04:21:43.131Z,60.10
2018-04-14T04:24:23.216Z,60.87
2018-04-14T04:26:51.455Z,56.03
2018-04-14T04:29:19.579Z,60.67
2018-04-14T04:31:49.297Z,63.17
2018-04-14T04:34:17.555Z,59.50
2018-04-14T04:36:45.739Z,61.23
2018-04-14T04:39:13.852Z,64.13
2018-04-14T04:41:42.002Z,59.20
2018-04-14T04:44:10.885Z,60.10
2018-04-14T04:46:39.799Z,61.70
2018-04-14T04:49:07.904Z,62.47
2018-04-14T04:51:36.042Z,62.30
2018-04-14T04:54:04.158Z,61.77
2018-04-14T04:56:32.378Z,63.83
2018-04-14T04:59:01.255Z,64.07
2018-04-14T05:01:29.382Z,65.97
2018-04-14T05:03:57.766Z,70.90
2018-04-14T05:06:25.886Z,62.97
2018-04-14T05:08:54.794Z,73.17
2018-04-14T05:11:22.962Z,64.93
2018-04-14T05:13:51.875Z,67.70
2018-04-14T05:16:19.985Z,62.57
2018-04-14T05:18:48.497Z,64.60
2018-04-14T05:21:17.391Z,63.90
2018-04-14T05:23:46.307Z,65.90
2018-04-14T05:26:15.558Z,65.93
2018-04-14T05:28:44.514Z,64.80
2018-04-14T05:31:12.720Z,71.53
2018-04-14T05:33:40.858Z,67.90
2018-04-14T05:36:08.981Z,65.90
2018-04-14T05:38:37.130Z,64.10
2018-04-14T05:41:05.252Z,65.77
2018-04-14T05:43:33.382Z,64.70
2018-04-14T05:46:01.509Z,66.40
2018-04-14T05:48:29.650Z,65.37
2018-04-14T05:50:57.797Z,64.50
2018-04-14T05:53:25.921Z,61.90
2018-04-14T05:55:54.039Z,59.57
2018-04-14T05:58:22.202Z,60.37
2018-04-14T06:00:50.312Z,61.20
2018-04-14T06:03:18.463Z,57.67
2018-04-14T06:05:46.580Z,56.17
2018-04-14T06:08:15.486Z,56.27
2018-04-14T06:10:43.603Z,57.33
2018-04-14T06:13:11.807Z,52.93
2018-04-14T06:15:40.778Z,55.10
2018-04-14T06:18:09.717Z,50.30
2018-04-14T06:20:37.837Z,52.40
2018-04-14T06:23:06.022Z,51.77
2018-04-14T06:25:34.135Z,48.20
2018-04-14T06:28:02.317Z,49.47
2018-04-14T06:30:30.434Z,48.70
2018-04-14T06:32:58.619Z,45.53
2018-04-14T06:35:26.744Z,45.33
2018-04-14T06:37:54.933Z,44.80
2018-04-14T06:40:23.453Z,41.40
2018-04-14T06:42:54.017Z,42.63
2018-04-14T06:45:22.133Z,45.17
2018-04-14T06:47:50.266Z,43.67
2018-04-14T06:50:18.415Z,38.03
2018-04-14T06:52:46.745Z,38.20
2018-04-14T06:55:14.878Z,38.40
2018-04-14T06:57:44.387Z,35.30
2018-04-14T07:00:13.267Z,36.13
2018-04-14T07:02:42.161Z,33.73
2018-04-14T07:05:11.051Z,35.57
2018-04-14T07:07:39.964Z,33.23
2018-04-14T07:10:08.064Z,34.17
2018-04-14T07:12:36.206Z,31.80
2018-04-14T07:15:04.325Z,30.03
2018-04-14T07:17:32.461Z,29.33
2018-04-14T07:20:00.585Z,30.90
2018-04-14T07:22:28.764Z,32.90
2018-04-14T07:24:57.676Z,32.30
2018-04-14T07:27:26.585Z,29.27
2018-04-14T07:29:54.702Z,30.50
2018-04-14T07:32:23.615Z,30.90
2018-04-14T07:34:52.083Z,30.97
2018-04-14T07:37:21.924Z,31.30
2018-04-14T07:39:50.118Z,31.00
2018-04-14T07:42:18.269Z,31.60
2018-04-14T07:44:46.748Z,31.13
2018-04-14T07:47:15.130Z,31.70
2018-04-14T07:49:44.087Z,30.30
2018-04-14T07:52:12.188Z,30.40
2018-04-14T07:54:40.554Z,29.23
2018-04-14T07:57:08.857Z,30.03
2018-04-14T07:59:37.770Z,27.77
2018-04-14T08:02:05.949Z,28.50
2018-04-14T08:04:34.081Z,27.37
2018-04-14T08:07:02.199Z,27.30
2018-04-14T08:09:30.667Z,26.03
2018-04-14T08:11:59.537Z,26.67
2018-04-14T08:14:28.546Z,28.50
2018-04-14T08:16:57.546Z,29.23
2018-04-14T08:19:26.624Z,29.90
2018-04-14T08:21:54.786Z,32.40
2018-04-14T08:24:22.936Z,29.23
2018-04-14T08:26:51.129Z,28.60
2018-04-14T08:29:19.274Z,29.00
2018-04-14T08:31:47.392Z,30.20
2018-04-14T08:34:16.290Z,30.53
2018-04-14T08:36:45.178Z,34.00
2018-04-14T08:39:14.175Z,31.33
2018-04-14T08:41:43.045Z,29.37
2018-04-14T08:44:11.194Z,30.30
2018-04-14T08:46:39.306Z,29.67
2018-04-14T08:49:08.205Z,28.87
2018-04-14T08:51:37.076Z,29.80
2018-04-14T08:54:05.225Z,27.60
2018-04-14T08:56:33.334Z,27.43
2018-04-14T08:59:02.229Z,27.67
2018-04-14T09:01:31.109Z,34.07
2018-04-14T09:03:59.260Z,30.43
2018-04-14T09:06:27.366Z,31.60
2018-04-14T09:08:55.507Z,31.30
2018-04-14T09:11:23.624Z,32.10
2018-04-14T09:13:52.521Z,33.20
2018-04-14T09:16:21.406Z,32.87
2018-04-14T09:18:50.315Z,34.67
2018-04-14T09:21:18.422Z,41.33
2018-04-14T09:23:46.562Z,42.70
2018-04-14T09:26:14.670Z,42.93
2018-04-14T09:28:42.810Z,45.03
2018-04-14T09:31:10.924Z,43.60
2018-04-14T09:33:39.083Z,44.63
2018-04-14T09:36:07.205Z,41.60
2018-04-14T09:38:36.111Z,39.67
2018-04-14T09:41:04.980Z,40.67
2018-04-14T09:43:33.136Z,39.77
2018-04-14T09:46:01.248Z,40.10
2018-04-14T09:48:30.183Z,39.37
2018-04-14T09:50:58.294Z,41.20
2018-04-14T09:53:26.442Z,40.73
2018-04-14T09:55:55.904Z,39.50
2018-04-14T09:58:25.288Z,39.73
2018-04-14T10:00:59.073Z,41.43
2018-04-14T10:03:29.208Z,45.23
2018-04-14T10:05:58.004Z,42.27
2018-04-14T10:08:27.494Z,40.63
2018-04-14T10:10:56.852Z,41.00
2018-04-14T10:13:26.310Z,39.00
2018-04-14T10:15:55.093Z,40.90
2018-04-14T10:18:23.980Z,42.20
2018-04-14T10:20:52.122Z,39.87
2018-04-14T10:23:20.238Z,38.77
2018-04-14T10:25:49.250Z,39.20
2018-04-14T10:28:17.369Z,39.80
2018-04-14T10:30:45.514Z,39.93
2018-04-14T10:33:13.644Z,41.57
2018-04-14T10:35:42.239Z,39.60
2018-04-14T10:38:11.134Z,42.23
2018-04-14T10:40:40.031Z,41.10
2018-04-14T10:43:08.914Z,38.93
2018-04-14T10:45:37.804Z,41.10
2018-04-14T10:48:06.699Z,39.30
2018-04-14T10:50:34.875Z,40.03
2018-04-14T10:53:03.766Z,41.70
2018-04-14T10:55:32.675Z,40.30
2018-04-14T10:58:00.795Z,41.50
2018-04-14T11:00:28.942Z,41.90
2018-04-14T11:02:57.057Z,40.80
2018-04-14T11:05:26.797Z,38.67
2018-04-14T11:07:55.042Z,40.50
2018-04-14T11:10:23.174Z,37.50
2018-04-14T11:12:51.286Z,37.53
2018-04-14T11:15:19.616Z,36.53
2018-04-14T11:17:49.411Z,36.37
2018-04-14T11:20:18.311Z,35.93
2018-04-14T11:22:47.200Z,34.10
2018-04-14T11:25:16.138Z,33.73
2018-04-14T11:27:44.253Z,34.30
2018-04-14T11:30:13.547Z,33.03
2018-04-14T11:32:41.734Z,35.37
2018-04-14T11:35:10.630Z,33.30
2018-04-14T11:37:39.509Z,34.07
2018-04-14T11:40:07.678Z,34.47
2018-04-14T11:42:35.875Z,34.00
2018-04-14T11:45:04.782Z,36.17
2018-04-14T11:47:33.024Z,33.50
2018-04-14T11:50:01.159Z,35.93
2018-04-14T11:52:29.270Z,34.93
2018-04-14T11:54:57.409Z,34.53
2018-04-14T11:57:25.527Z,32.80
2018-04-14T11:59:53.671Z,32.80
2018-04-14T12:02:21.801Z,33.10
2018-04-14T12:04:49.941Z,29.63
2018-04-14T12:07:18.058Z,30.63
2018-04-14T12:09:46.201Z,32.10
2018-04-14T12:12:14.378Z,31.50
2018-04-14T12:14:42.482Z,30.03
2018-04-14T12:17:10.941Z,34.13
2018-04-14T12:19:39.074Z,31.10
2018-04-14T12:22:07.197Z,31.40
2018-04-14T12:24:35.431Z,30.67
2018-04-14T12:27:03.600Z,28.77
2018-04-14T12:29:31.745Z,31.30
2018-04-14T12:31:59.864Z,30.03
2018-04-14T12:34:27.998Z,30.63
2018-04-14T12:36:56.119Z,33.27
2018-04-14T12:39:25.029Z,30.37
2018-04-14T12:41:53.237Z,29.73
2018-04-14T12:44:21.359Z,30.57
2018-04-14T12:46:50.264Z,31.30
2018-04-14T12:49:19.500Z,29.60
2018-04-14T12:51:49.266Z,31.40
2018-04-14T12:54:17.475Z,31.27
2018-04-14T12:56:45.721Z,30.43
2018-04-14T12:59:13.867Z,31.20
2018-04-14T13:01:41.997Z,32.03
2018-04-14T13:04:10.132Z,30.60
2018-04-14T13:06:39.038Z,29.20
2018-04-14T13:09:07.918Z,30.63
2018-04-14T13:11:36.810Z,29.40
2018-04-14T13:14:05.694Z,28.17
2018-04-14T13:16:33.829Z,31.80
2018-04-14T13:19:01.957Z,29.90
2018-04-14T13:21:30.893Z,31.90
2018-04-14T13:23:59.010Z,31.00
2018-04-14T13:26:27.924Z,30.30
2018-04-14T13:28:56.042Z,28.90
2018-04-14T13:31:24.178Z,29.40
2018-04-14T13:33:54.068Z,29.70
2018-04-14T13:36:22.960Z,30.70
2018-04-14T13:38:51.838Z,27.80
2018-04-14T13:41:19.990Z,28.67
2018-04-14T13:43:49.242Z,30.90
2018-04-14T13:46:17.392Z,28.80
2018-04-14T13:48:46.294Z,29.10
2018-04-14T13:51:14.936Z,31.90
2018-04-14T13:53:43.044Z,33.30
2018-04-14T13:56:11.938Z,30.37
2018-04-14T13:58:40.816Z,30.47
2018-04-14T14:01:08.955Z,29.40
2018-04-14T14:03:37.059Z,32.40
2018-04-14T14:06:05.218Z,32.00
2018-04-14T14:08:33.335Z,32.60
2018-04-14T14:11:02.233Z,33.40
2018-04-14T14:13:30.355Z,32.23
2018-04-14T14:15:58.491Z,34.27
2018-04-14T14:18:26.634Z,31.73
2018-04-14T14:20:55.540Z,34.33
2018-04-14T14:23:24.409Z,32.73
2018-04-14T14:25:52.551Z,32.20
2018-04-14T14:28:20.655Z,33.87
2018-04-14T14:30:48.799Z,35.27
2018-04-14T14:33:16.923Z,34.70
2018-04-14T14:35:45.813Z,33.93
2018-04-14T14:38:14.701Z,35.43
2018-04-14T14:40:43.607Z,32.60
2018-04-14T14:43:11.717Z,33.53
2018-04-14T14:45:39.862Z,36.77
2018-04-14T14:48:08.038Z,34.20
2018-04-14T14:50:36.342Z,32.60
2018-04-14T14:53:04.749Z,32.43
2018-04-14T14:55:32.904Z,33.73
2018-04-14T14:58:01.006Z,34.43
2018-04-14T15:00:29.956Z,34.33
2018-04-14T15:02:58.081Z,34.30
2018-04-14T15:05:27.368Z,35.80
2018-04-14T15:07:56.353Z,36.77
2018-04-14T15:10:25.523Z,35.07
2018-04-14T15:12:53.662Z,31.87
2018-04-14T15:15:21.796Z,31.57
2018-04-14T15:17:49.922Z,32.97
2018-04-14T15:20:18.041Z,31.47
2018-04-14T15:22:46.173Z,33.10
2018-04-14T15:25:14.310Z,34.13
2018-04-14T15:27:43.213Z,33.60
2018-04-14T15:30:11.349Z,32.73
2018-04-14T15:32:39.488Z,33.70
2018-04-14T15:35:07.599Z,32.80
2018-04-14T15:37:35.737Z,34.03
2018-04-14T15:40:03.919Z,32.77
2018-04-14T15:42:32.058Z,34.43
2018-04-14T15:45:00.178Z,32.07
2018-04-14T15:47:28.348Z,32.70
2018-04-14T15:49:56.466Z,33.00
2018-04-14T15:52:25.363Z,32.60
2018-04-14T15:54:53.483Z,33.27
2018-04-14T15:57:21.614Z,35.13
2018-04-14T15:59:50.354Z,34.80
2018-04-14T16:02:18.496Z,33.80
2018-04-14T16:04:46.638Z,32.63
2018-04-14T16:07:15.533Z,35.57
2018-04-14T16:09:43.656Z,33.60
2018-04-14T16:12:11.795Z,33.47
2018-04-14T16:14:39.905Z,34.03
2018-04-14T16:17:08.085Z,34.30
2018-04-14T16:19:36.182Z,34.00
2018-04-14T16:22:04.366Z,34.77
2018-04-14T16:24:33.240Z,33.13
2018-04-14T16:27:01.385Z,35.17
2018-04-14T16:29:29.511Z,35.37
2018-04-14T16:31:58.415Z,35.57
2018-04-14T16:34:26.537Z,36.20
2018-04-14T16:36:55.430Z,34.60
2018-04-14T16:39:23.551Z,34.70
2018-04-14T16:41:51.682Z,35.43
2018-04-14T16:44:19.798Z,36.60
2018-04-14T16:46:47.931Z,35.90
2018-04-14T16:49:16.193Z,34.83
2018-04-14T16:51:44.330Z,34.90
2018-04-14T16:54:12.431Z,33.83
2018-04-14T16:56:41.333Z,35.57
2018-04-14T16:59:09.442Z,38.00
2018-04-14T17:01:38.345Z,35.20
2018-04-14T17:04:06.448Z,35.80
2018-04-14T17:06:34.595Z,36.40
2018-04-14T17:09:02.809Z,34.40
2018-04-14T17:11:31.230Z,37.77
2018-04-14T17:14:00.106Z,36.40
2018-04-14T17:16:28.247Z,36.43
2018-04-14T17:18:56.363Z,38.70
2018-04-14T17:21:25.263Z,37.70
2018-04-14T17:23:54.142Z,36.73
2018-04-14T17:26:23.047Z,38.40
2018-04-14T17:28:51.934Z,36.10
2018-04-14T17:31:20.858Z,37.70
2018-04-14T17:33:48.968Z,35.30
2018-04-14T17:36:17.113Z,36.33
2018-04-14T17:38:45.246Z,36.40
2018-04-14T17:41:14.215Z,37.70
2018-04-14T17:43:52.550Z,35.87
2018-04-14T17:46:20.699Z,36.50
2018-04-14T17:48:48.806Z,34.90
2018-04-14T17:51:17.713Z,34.00
2018-04-14T17:53:45.817Z,34.87
2018-04-14T17:56:13.961Z,35.67
2018-04-14T17:58:42.109Z,34.10
2018-04-14T18:01:10.248Z,36.20
2018-04-14T18:03:38.379Z,36.57
2018-04-14T18:06:06.863Z,33.83
2018-04-14T18:08:35.434Z,34.37
2018-04-14T18:11:04.391Z,38.80
2018-04-14T18:13:32.550Z,35.90
2018-04-14T18:16:00.652Z,37.20
2018-04-14T18:18:28.812Z,36.90
2018-04-14T18:20:56.978Z,37.93
2018-04-14T18:23:25.114Z,37.27
2018-04-14T18:25:53.313Z,36.43
2018-04-14T18:28:21.451Z,36.57
2018-04-14T18:30:49.574Z,37.70
2018-04-14T18:33:17.719Z,36.13
2018-04-14T18:35:45.982Z,36.70
2018-04-14T18:38:14.129Z,37.00
2018-04-14T18:40:42.249Z,36.80
2018-04-14T18:43:10.389Z,38.87
2018-04-14T18:45:39.305Z,37.00
2018-04-14T18:48:07.439Z,36.73
2018-04-14T18:50:36.328Z,36.70
2018-04-14T18:53:04.469Z,35.70
2018-04-14T18:55:32.614Z,36.27
2018-04-14T18:58:00.806Z,37.03
2018-04-14T19:00:28.926Z,37.50
2018-04-14T19:02:57.859Z,35.53
2018-04-14T19:05:25.960Z,39.00
2018-04-14T19:07:54.108Z,35.60
2018-04-14T19:10:22.273Z,35.23
2018-04-14T19:12:51.150Z,37.03
2018-04-14T19:15:19.276Z,36.50
2018-04-14T19:17:47.414Z,35.93
2018-04-14T19:20:15.520Z,36.27
2018-04-14T19:22:43.654Z,36.73
2018-04-14T19:25:11.796Z,36.80
2018-04-14T19:27:39.943Z,35.93
2018-04-14T19:30:08.066Z,37.47
2018-04-14T19:32:36.961Z,37.00
2018-04-14T19:35:05.064Z,38.00
2018-04-14T19:37:33.201Z,36.87
2018-04-14T19:40:01.426Z,35.70
2018-04-14T19:42:29.563Z,34.87
2018-04-14T19:44:57.850Z,34.57
2018-04-14T19:47:26.109Z,38.60
2018-04-14T19:49:55.587Z,36.10
2018-04-14T19:52:24.390Z,35.10
2018-04-14T19:54:53.284Z,36.17
2018-04-14T19:57:22.178Z,36.07
2018-04-14T19:59:50.309Z,35.30
2018-04-14T20:02:18.442Z,35.43
2018-04-14T20:04:46.565Z,36.00
2018-04-14T20:07:14.699Z,34.37
2018-04-14T20:09:42.808Z,35.50
2018-04-14T20:12:10.957Z,35.30
2018-04-14T20:14:39.082Z,38.73
2018-04-14T20:17:07.983Z,35.17
2018-04-14T20:19:36.133Z,37.93
2018-04-14T20:22:04.274Z,37.50
2018-04-14T20:24:32.382Z,39.10
2018-04-14T20:27:00.520Z,40.90
2018-04-14T20:29:28.620Z,38.30
2018-04-14T20:31:56.739Z,37.37
2018-04-14T20:34:24.872Z,37.90
2018-04-14T20:36:53.875Z,38.73
2018-04-14T20:39:22.783Z,37.27
2018-04-14T20:41:50.901Z,37.50
2018-04-14T20:44:19.027Z,36.97
2018-04-14T20:46:47.173Z,38.77
2018-04-14T20:49:15.324Z,37.17
2018-04-14T20:51:43.445Z,35.73
2018-04-14T20:54:11.589Z,37.30
2018-04-14T20:56:39.707Z,37.83
2018-04-14T20:59:07.850Z,37.47
2018-04-14T21:01:36.727Z,37.17
2018-04-14T21:04:04.856Z,38.70
2018-04-14T21:06:34.304Z,38.57
2018-04-14T21:09:03.122Z,38.17
2018-04-14T21:11:31.234Z,42.63
2018-04-14T21:13:59.383Z,39.57
2018-04-14T21:16:27.520Z,37.57
2018-04-14T21:18:56.429Z,37.33
2018-04-14T21:21:24.613Z,38.20
2018-04-14T21:23:52.751Z,35.50
2018-04-14T21:26:20.875Z,35.70
2018-04-14T21:28:49.001Z,31.83
2018-04-14T21:31:17.122Z,33.87
2018-04-14T21:33:45.251Z,34.00
2018-04-14T21:36:14.151Z,35.03
2018-04-14T21:38:43.062Z,34.90
2018-04-14T21:41:11.197Z,33.73
2018-04-14T21:43:39.321Z,34.37
2018-04-14T21:46:07.436Z,32.23
2018-04-14T21:48:35.561Z,31.20
2018-04-14T21:51:03.753Z,32.40
2018-04-14T21:53:31.902Z,36.23
2018-04-14T21:56:00.019Z,35.80
2018-04-14T21:58:28.917Z,34.80
2018-04-14T22:00:57.033Z,33.43
2018-04-14T22:03:25.170Z,32.90
2018-04-14T22:05:53.288Z,31.67
2018-04-14T22:08:21.438Z,34.40
2018-04-14T22:10:50.362Z,31.67
2018-04-14T22:13:18.502Z,30.70
2018-04-14T22:15:47.387Z,32.07
2018-04-14T22:18:16.303Z,32.60
2018-04-14T22:20:45.182Z,31.40
2018-04-14T22:23:14.073Z,31.77
2018-04-14T22:25:42.954Z,30.23
2018-04-14T22:28:11.094Z,31.93
2018-04-14T22:30:39.208Z,31.47
2018-04-14T22:33:08.120Z,31.63
2018-04-14T22:35:36.231Z,30.93
2018-04-14T22:38:04.423Z,31.43
2018-04-14T22:40:32.540Z,31.27
2018-04-14T22:43:00.688Z,32.20
2018-04-14T22:45:28.792Z,30.00
2018-04-14T22:47:56.941Z,32.00
2018-04-14T22:50:25.817Z,29.93
2018-04-14T22:52:53.966Z,28.63
2018-04-14T22:55:22.161Z,28.73
2018-04-14T22:57:50.303Z,32.07
2018-04-14T23:00:18.423Z,30.20
2018-04-14T23:02:47.342Z,31.53
2018-04-14T23:05:15.456Z,29.03
2018-04-14T23:07:43.565Z,29.43
2018-04-14T23:10:12.472Z,32.30
2018-04-14T23:12:40.582Z,31.10
2018-04-14T23:15:08.711Z,30.37
2018-04-14T23:17:36.872Z,31.90
2018-04-14T23:20:05.778Z,35.63
2018-04-14T23:22:34.655Z,31.67
2018-04-14T23:25:03.554Z,31.10
2018-04-14T23:27:32.432Z,30.77
2018-04-14T23:30:01.343Z,29.80
2018-04-14T23:32:29.461Z,30.47
2018-04-14T23:34:57.598Z,29.40
2018-04-14T23:37:25.719Z,33.83
2018-04-14T23:39:54.659Z,31.20
2018-04-14T23:42:22.765Z,31.37
2018-04-14T23:44:50.903Z,31.27
2018-04-14T23:47:19.018Z,31.80
2018-04-14T23:49:47.145Z,33.40
2018-04-14T23:52:15.261Z,33.20
2018-04-14T23:54:43.389Z,30.90
2018-04-14T23:57:12.273Z,30.80
2018-04-14T23:59:41.187Z,30.30
